Time;durP1;ratioP1;P1;durP2;ratioP2;P2;SDS_P1;SDS_P2;PMS_P1;PMS_P2;Temp;Humidity;BMP_temperature;BMP_pressure;BME280_temperature;BME280_humidity;BME280_pressure;Samples;Min_cycle;Max_cycle;Signal;HPM_P1;HPM_P2
2021/12/02 00:00:38;;;;;;;22.88;14.07;;;;;;;5.31;100.00;98491.69;6121725;23;20013;-77
2021/12/02 00:03:06;;;;;;;20.77;14.48;;;;;;;5.30;100.00;98491.84;6122902;23;20477;-76
2021/12/02 00:05:32;;;;;;;24.85;14.02;;;;;;;5.22;100.00;98497.75;6122822;23;20017;-76
2021/12/02 00:07:58;;;;;;;20.80;14.38;;;;;;;5.19;100.00;98492.75;6123160;23;20444;-77
2021/12/02 00:10:28;;;;;;;20.85;13.68;;;;;;;5.12;100.00;98486.44;6122654;23;20006;-76
2021/12/02 00:12:56;;;;;;;19.88;13.95;;;;;;;5.09;100.00;98471.00;6123427;23;20159;-77
2021/12/02 00:15:23;;;;;;;18.60;13.38;;;;;;;5.02;100.00;98469.88;6122697;23;20020;-75
2021/12/02 00:17:56;;;;;;;24.40;14.30;;;;;;;4.93;100.00;98470.72;6122733;23;20483;-75
2021/12/02 00:23:35;;;;;;;22.98;14.02;;;;;;;4.89;100.00;98459.66;6146268;23;20020;-76
2021/12/02 00:26:07;;;;;;;21.25;14.32;;;;;;;4.88;100.00;98457.22;6123613;23;20017;-77
2021/12/02 00:28:37;;;;;;;23.05;14.00;;;;;;;4.88;100.00;98454.59;6123132;23;20021;-75
2021/12/02 00:31:02;;;;;;;22.42;13.95;;;;;;;4.89;100.00;98453.59;6123572;23;20006;-77
2021/12/02 00:33:30;;;;;;;23.98;13.90;;;;;;;4.92;100.00;98458.59;6122984;23;20073;-77
2021/12/02 00:35:56;;;;;;;17.58;13.10;;;;;;;4.93;100.00;98447.19;6123557;23;20080;-75
2021/12/02 00:38:23;;;;;;;20.02;13.15;;;;;;;4.95;100.00;98463.53;6123599;23;20010;-76
2021/12/02 00:40:49;;;;;;;22.05;13.75;;;;;;;5.00;100.00;98465.78;6123560;23;20020;-75
2021/12/02 00:43:16;;;;;;;18.33;13.45;;;;;;;4.95;100.00;98460.91;6123349;23;20010;-77
2021/12/02 00:45:43;;;;;;;25.25;13.40;;;;;;;4.89;100.00;98459.66;6123432;23;20092;-75
2021/12/02 00:48:10;;;;;;;25.73;13.52;;;;;;;4.91;100.00;98456.94;6123466;23;20017;-76
2021/12/02 00:50:38;;;;;;;23.75;14.32;;;;;;;4.94;100.00;98446.22;6123901;23;20069;-76
2021/12/02 00:53:06;;;;;;;23.52;13.23;;;;;;;4.88;100.00;98451.97;6123392;23;20037;-77
2021/12/02 00:55:37;;;;;;;24.52;14.25;;;;;;;4.83;100.00;98443.72;6123069;23;20036;-75
2021/12/02 00:58:03;;;;;;;22.67;15.65;;;;;;;4.83;100.00;98443.72;6124077;23;20006;-77
2021/12/02 01:00:29;;;;;;;23.10;14.20;;;;;;;4.77;100.00;98447.66;6125100;23;20057;-77
2021/12/02 01:02:58;;;;;;;23.05;14.18;;;;;;;4.71;100.00;98440.34;6125894;23;20339;-76
2021/12/02 01:05:25;;;;;;;21.95;14.25;;;;;;;4.71;100.00;98435.13;6125863;23;20014;-77
2021/12/02 01:07:50;;;;;;;18.83;13.20;;;;;;;4.68;100.00;98439.81;6126651;23;20390;-78
2021/12/02 01:10:16;;;;;;;20.48;13.02;;;;;;;4.63;100.00;98436.78;6125618;23;20084;-78
2021/12/02 01:12:42;;;;;;;20.00;13.57;;;;;;;4.59;100.00;98431.00;6127095;23;20014;-77
2021/12/02 01:15:08;;;;;;;17.90;12.68;;;;;;;4.62;100.00;98432.50;6160503;23;20018;-75
2021/12/02 01:17:34;;;;;;;20.02;12.85;;;;;;;4.65;100.00;98424.41;6142187;23;20026;-78
2021/12/02 01:19:59;;;;;;;21.02;14.77;;;;;;;4.67;100.00;98417.25;6140787;23;20089;-77
2021/12/02 01:22:28;;;;;;;21.00;12.73;;;;;;;4.66;100.00;98424.25;6140435;23;20021;-77
2021/12/02 01:24:57;;;;;;;20.05;13.38;;;;;;;4.68;100.00;98424.13;6138354;23;20014;-76
2021/12/02 01:27:23;;;;;;;18.33;13.18;;;;;;;4.69;100.00;98426.63;6127069;23;20017;-75
2021/12/02 01:29:51;;;;;;;19.48;13.75;;;;;;;4.69;100.00;98415.34;6126352;23;20003;-75
2021/12/02 01:32:17;;;;;;;23.23;14.05;;;;;;;4.69;100.00;98410.09;6125379;23;20499;-77
2021/12/02 01:34:46;;;;;;;19.95;13.73;;;;;;;4.72;100.00;98409.81;6125815;23;20010;-76
2021/12/02 01:37:13;;;;;;;21.17;13.32;;;;;;;4.75;100.00;98405.19;6125451;23;20097;-77
2021/12/02 01:39:39;;;;;;;19.08;13.30;;;;;;;4.78;100.00;98397.06;6125308;23;20010;-76
2021/12/02 01:42:10;;;;;;;20.23;13.10;;;;;;;4.82;100.00;98397.63;6125686;23;20485;-77
2021/12/02 01:44:40;;;;;;;23.25;13.07;;;;;;;4.81;100.00;98393.34;6125400;23;20426;-76
2021/12/02 01:47:12;;;;;;;18.50;14.23;;;;;;;4.81;100.00;98395.97;6125050;23;20337;-77
2021/12/02 01:49:43;;;;;;;20.70;13.02;;;;;;;4.81;100.00;98394.19;6124830;23;20404;-75
2021/12/02 01:52:12;;;;;;;;;;;;;;;4.82;100.00;98389.78;6125742;23;20033;-76
2021/12/02 01:54:44;;;;;;;17.13;12.60;;;;;;;4.82;100.00;98397.63;6121072;23;19947;-76
2021/12/02 01:57:26;;;;;;;19.75;14.05;;;;;;;4.83;100.00;98391.44;6122408;23;20021;-77
2021/12/02 02:00:03;;;;;;;21.88;13.18;;;;;;;4.82;100.00;98389.78;6123949;23;20384;-76
2021/12/02 02:02:39;;;;;;;19.05;13.25;;;;;;;4.82;100.00;98389.78;6124437;23;20029;-77
2021/12/02 02:05:11;;;;;;;20.10;12.90;;;;;;;4.83;100.00;98391.44;6125296;23;20474;-77
2021/12/02 02:07:41;;;;;;;18.83;13.07;;;;;;;4.85;100.00;98389.50;6125916;23;20014;-78
2021/12/02 02:10:07;;;;;;;18.15;13.15;;;;;;;4.87;100.00;98396.25;6125325;23;20030;-77
2021/12/02 02:12:33;;;;;;;19.52;13.43;;;;;;;4.90;100.00;98392.53;6125020;23;20017;-78
2021/12/02 02:15:00;;;;;;;21.17;13.70;;;;;;;4.90;100.00;98392.53;6124991;23;20093;-77
2021/12/02 02:17:29;;;;;;;17.25;13.38;;;;;;;4.90;100.00;98390.75;6123879;23;20018;-77
2021/12/02 02:19:55;;;;;;;18.75;12.98;;;;;;;4.93;100.00;98387.88;6124720;23;20010;-76
2021/12/02 02:22:23;;;;;;;19.27;13.90;;;;;;;4.94;100.00;98391.31;6124649;23;20006;-75
2021/12/02 02:24:49;;;;;;;19.33;12.52;;;;;;;4.98;100.00;98384.03;6124601;23;20010;-74
2021/12/02 02:27:16;;;;;;;21.48;13.73;;;;;;;4.95;100.00;98385.09;6124802;23;20080;-75
2021/12/02 02:29:41;;;;;;;17.17;13.63;;;;;;;4.92;100.00;98386.22;6125048;23;20014;-76
2021/12/02 02:32:07;;;;;;;20.33;13.80;;;;;;;4.91;100.00;98388.97;6147417;23;20010;-76
2021/12/02 02:34:33;;;;;;;17.77;12.80;;;;;;;4.90;100.00;98376.84;6124222;23;20085;-77
2021/12/02 02:37:02;;;;;;;22.58;13.07;;;;;;;4.84;100.00;98372.16;6126629;23;20026;-76
2021/12/02 02:39:30;;;;;;;20.88;14.15;;;;;;;4.76;100.00;98372.03;6142040;23;20014;-77
2021/12/02 02:42:01;;;;;;;23.02;15.13;;;;;;;4.66;100.00;98363.31;6150333;23;20029;-75
2021/12/02 02:44:29;;;;;;;28.30;15.68;;;;;;;4.59;100.00;98359.63;6133991;23;20029;-75
2021/12/02 02:46:56;;;;;;;25.58;15.20;;;;;;;4.59;100.00;98357.00;6128454;23;20086;-77
2021/12/02 02:49:22;;;;;;;22.90;14.70;;;;;;;4.63;100.00;98363.59;6125858;23;20038;-75
2021/12/02 02:51:48;;;;;;;24.92;15.70;;;;;;;4.67;100.00;98349.31;6125325;23;20080;-77
2021/12/02 02:54:16;;;;;;;23.38;15.25;;;;;;;4.69;100.00;98352.63;6125025;23;20014;-76
2021/12/02 02:56:54;;;;;;;20.58;14.38;;;;;;;4.76;100.00;98353.75;6125392;23;20036;-76
2021/12/02 02:59:32;;;;;;;18.73;14.13;;;;;;;4.76;100.00;98335.44;6124662;23;20018;-76
2021/12/02 03:02:24;;;;;;;21.55;13.63;;;;;;;4.72;100.00;98339.28;6147508;23;20014;-77
2021/12/02 03:07:32;;;;;;;18.80;13.48;;;;;;;4.57;100.00;98351.09;6124036;23;20450;-76
2021/12/02 03:10:09;;;;;;;20.20;13.43;;;;;;;4.58;100.00;98339.69;6147340;23;20350;-76
2021/12/02 03:12:51;;;;;;;20.25;12.70;;;;;;;4.60;100.00;98337.72;6124409;23;20010;-77
2021/12/02 03:17:44;;;;;;;17.50;12.50;;;;;;;4.47;100.00;98338.84;6123066;23;20467;-77
2021/12/02 03:20:10;;;;;;;19.52;14.10;;;;;;;4.47;100.00;98332.78;6123552;23;20010;-76
2021/12/02 03:22:36;;;;;;;19.27;12.98;;;;;;;4.49;100.00;98331.69;6123074;23;20068;-76
2021/12/02 03:25:05;;;;;;;19.92;13.25;;;;;;;4.48;100.00;98335.25;6123681;23;20332;-77
2021/12/02 03:27:30;;;;;;;22.13;12.95;;;;;;;4.48;100.00;98329.19;6124330;23;20016;-77
2021/12/02 03:29:56;;;;;;;19.27;13.45;;;;;;;4.50;100.00;98322.88;6124813;23;20089;-77
2021/12/02 03:32:21;;;;;;;20.27;13.40;;;;;;;4.53;100.00;98322.63;6124220;23;20026;-76
2021/12/02 03:34:47;;;;;;;21.42;13.95;;;;;;;4.53;100.00;98317.41;6125491;23;20021;-77
2021/12/02 03:37:13;;;;;;;15.52;12.38;;;;;;;4.46;100.00;98323.28;6124832;23;20006;-76
2021/12/02 03:39:38;;;;;;;20.30;13.38;;;;;;;4.43;100.00;98316.53;6122999;23;20089;-77
2021/12/02 03:42:05;;;;;;;17.58;13.13;;;;;;;4.37;100.00;98317.06;6124353;23;20427;-75
2021/12/02 03:44:30;;;;;;;20.23;13.52;;;;;;;4.37;100.00;98306.63;6123938;23;20016;-76
2021/12/02 03:46:56;;;;;;;19.90;13.00;;;;;;;4.41;100.00;98301.97;6124499;23;20014;-76
2021/12/02 03:49:22;;;;;;;16.92;12.98;;;;;;;4.42;100.00;98299.22;6123555;23;20440;-77
2021/12/02 03:51:48;;;;;;;20.35;13.57;;;;;;;4.48;100.00;98301.28;6126881;23;20037;-77
2021/12/02 03:54:14;;;;;;;18.50;13.27;;;;;;;4.53;100.00;98301.72;6127594;23;20002;-77
2021/12/02 03:56:40;;;;;;;18.02;13.10;;;;;;;4.53;100.00;98301.72;6129251;23;20016;-78
2021/12/02 03:59:05;;;;;;;21.00;12.82;;;;;;;4.53;100.00;98306.97;6128666;23;20029;-77
2021/12/02 04:01:31;;;;;;;15.60;13.05;;;;;;;4.46;100.00;98313.69;6126304;23;20049;-77
2021/12/02 04:03:56;;;;;;;19.55;13.98;;;;;;;4.48;100.00;98309.13;6126773;23;20014;-77
2021/12/02 04:06:26;;;;;;;16.45;13.40;;;;;;;4.48;100.00;98313.50;6125069;23;20064;-76
2021/12/02 04:16:17;;;;;;;18.13;13.25;;;;;;;4.37;100.00;98296.19;6145864;23;20101;-75
2021/12/02 04:18:43;;;;;;;20.75;12.90;;;;;;;4.34;100.00;98293.84;6123388;23;20010;-77
2021/12/02 04:21:09;;;;;;;18.52;13.50;;;;;;;4.35;100.00;98282.44;6123654;23;20392;-78
2021/12/02 04:23:34;;;;;;;21.25;13.30;;;;;;;4.33;100.00;98286.97;6122831;23;20343;-76
2021/12/02 04:25:59;;;;;;;22.73;14.00;;;;;;;4.31;100.00;98286.28;6123170;23;20445;-78
2021/12/02 04:28:25;;;;;;;18.75;13.13;;;;;;;4.34;100.00;98286.00;6122985;23;20093;-78
2021/12/02 04:30:50;;;;;;;19.98;13.85;;;;;;;4.40;100.00;98290.69;6123387;23;20014;-78
2021/12/02 04:33:16;;;;;;;19.70;12.90;;;;;;;4.45;100.00;98285.91;6122939;23;20002;-78
2021/12/02 04:35:41;;;;;;;18.83;12.93;;;;;;;4.49;100.00;98284.66;6123389;23;20014;-78
2021/12/02 04:38:07;;;;;;;20.13;13.55;;;;;;;4.52;100.00;98281.78;6123327;23;20044;-78
2021/12/02 04:40:35;;;;;;;18.90;13.57;;;;;;;4.57;100.00;98273.53;6122943;23;20006;-78
2021/12/02 04:43:01;;;;;;;20.48;12.80;;;;;;;4.56;100.00;98278.88;6123265;23;20014;-77
2021/12/02 04:45:28;;;;;;;17.98;13.02;;;;;;;4.57;100.00;98275.31;6122666;23;20036;-78
2021/12/02 04:47:53;;;;;;;17.98;12.68;;;;;;;4.51;100.00;98269.69;6122919;23;20013;-78
2021/12/02 04:50:19;;;;;;;18.40;13.38;;;;;;;4.54;100.00;98260.72;6123321;23;20011;-78
2021/12/02 04:52:44;;;;;;;21.80;13.48;;;;;;;4.57;100.00;98254.41;6146195;23;20056;-78
2021/12/02 04:55:10;;;;;;;22.25;12.35;;;;;;;4.56;100.00;98247.53;6123336;23;20021;-78
2021/12/02 04:57:35;;;;;;;18.23;12.68;;;;;;;4.51;100.00;98246.16;6121511;23;20018;-78
2021/12/02 05:00:03;;;;;;;21.60;13.95;;;;;;;4.48;100.00;98235.97;6123713;23;20014;-78
2021/12/02 05:02:28;;;;;;;23.48;13.00;;;;;;;4.50;100.00;98236.69;6123362;23;20458;-78
2021/12/02 05:04:54;;;;;;;19.20;14.00;;;;;;;4.51;100.00;98235.72;6124142;23;20033;-76
2021/12/02 05:07:19;;;;;;;20.48;13.10;;;;;;;4.50;100.00;98239.28;6122522;23;20317;-78
2021/12/02 05:09:45;;;;;;;21.20;14.88;;;;;;;4.54;100.00;98234.59;6124278;23;20013;-78
2021/12/02 05:12:10;;;;;;;21.55;13.98;;;;;;;4.52;100.00;98247.81;6124043;23;20072;-77
2021/12/02 05:14:36;;;;;;;24.30;15.10;;;;;;;4.56;100.00;98250.97;6123926;23;20316;-78
2021/12/02 05:17:01;;;;;;;18.60;13.95;;;;;;;4.58;100.00;98256.91;6124222;23;20313;-78
2021/12/02 05:19:27;;;;;;;20.35;14.25;;;;;;;4.56;100.00;98258.81;6123558;23;20439;-78
2021/12/02 05:21:52;;;;;;;21.02;13.93;;;;;;;4.63;100.00;98246.03;6124017;23;20060;-77
2021/12/02 05:24:18;;;;;;;19.00;14.07;;;;;;;4.66;100.00;98245.75;6123958;23;20331;-80
2021/12/02 05:26:44;;;;;;;20.48;14.48;;;;;;;4.67;100.00;98247.41;6124711;23;20017;-75
2021/12/02 05:29:09;;;;;;;17.88;13.40;;;;;;;4.65;100.00;98246.72;6127173;23;20006;-75
2021/12/02 05:31:35;;;;;;;19.27;13.90;;;;;;;4.65;100.00;98260.63;6124887;23;20025;-75
2021/12/02 05:34:01;;;;;;;24.48;12.85;;;;;;;4.67;100.00;98266.53;6132496;23;20006;-76
2021/12/02 05:36:26;;;;;;;19.27;13.68;;;;;;;4.69;100.00;98263.78;6133040;23;20439;-76
2021/12/02 05:38:52;;;;;;;19.75;13.65;;;;;;;4.72;100.00;98268.72;6133090;23;20435;-76
2021/12/02 05:41:17;;;;;;;18.65;13.85;;;;;;;4.73;100.00;98265.16;6129151;23;20014;-76
2021/12/02 05:43:43;;;;;;;21.25;13.70;;;;;;;4.74;100.00;98261.56;6124924;23;20487;-75
2021/12/02 05:46:09;;;;;;;20.27;13.88;;;;;;;4.77;100.00;98267.34;6125594;23;20021;-75
2021/12/02 05:48:35;;;;;;;19.90;13.60;;;;;;;4.79;100.00;98267.22;6124744;23;20084;-74
2021/12/02 05:51:00;;;;;;;18.85;13.95;;;;;;;4.77;100.00;98267.34;6125252;23;20017;-74
2021/12/02 05:53:26;;;;;;;20.23;13.65;;;;;;;4.71;100.00;98262.66;6148249;23;20097;-74
2021/12/02 05:55:52;;;;;;;24.23;13.43;;;;;;;4.66;100.00;98258.81;6123946;23;20092;-75
2021/12/02 05:58:17;;;;;;;18.15;13.82;;;;;;;4.60;100.00;98251.53;6124101;23;20041;-77
2021/12/02 06:00:43;;;;;;;23.27;14.68;;;;;;;4.60;100.00;98248.91;6125484;23;20010;-79
2021/12/02 06:03:09;;;;;;;22.85;14.13;;;;;;;4.56;100.00;98237.09;6124924;23;20312;-77
2021/12/02 06:05:34;;;;;;;19.10;14.13;;;;;;;4.53;100.00;98241.66;6125579;23;20045;-76
2021/12/02 06:08:02;;;;;;;19.85;13.60;;;;;;;4.52;100.00;98226.94;6125107;23;20371;-77
2021/12/02 06:10:30;;;;;;;21.42;13.77;;;;;;;4.56;100.00;98226.63;6124742;23;20121;-79
2021/12/02 06:12:56;;;;;;;19.45;14.10;;;;;;;4.51;100.00;98219.22;6126566;23;20010;-77
2021/12/02 06:15:24;;;;;;;21.10;13.45;;;;;;;4.47;100.00;98225.69;6129312;23;20021;-78
2021/12/02 06:17:49;;;;;;;18.75;14.32;;;;;;;4.47;100.00;98223.91;6130910;23;20010;-77
2021/12/02 06:20:19;;;;;;;20.52;14.82;;;;;;;4.50;100.00;98222.78;6140362;23;20014;-77
2021/12/02 06:22:46;;;;;;;19.63;13.38;;;;;;;4.52;100.00;98221.72;6146020;23;20002;-77
2021/12/02 06:27:43;;;;;;;20.23;14.77;;;;;;;4.45;100.00;98217.97;6130073;23;20013;-78
2021/12/02 06:30:10;;;;;;;24.17;14.95;;;;;;;4.40;100.00;98212.34;6127219;23;20010;-79
2021/12/02 06:32:36;;;;;;;21.05;14.57;;;;;;;4.36;100.00;98210.94;6125253;23;20301;-78
2021/12/02 06:35:02;;;;;;;27.90;15.73;;;;;;;4.38;100.00;98216.03;6126158;23;20006;-79
2021/12/02 06:37:28;;;;;;;26.98;15.88;;;;;;;4.38;100.00;98214.25;6125168;23;20014;-79
2021/12/02 06:39:54;;;;;;;23.10;15.20;;;;;;;4.39;100.00;98210.69;6125595;23;20010;-79
2021/12/02 06:42:19;;;;;;;22.55;15.82;;;;;;;4.45;100.00;98210.16;6124844;23;20017;-79
2021/12/02 06:44:46;;;;;;;21.23;15.57;;;;;;;4.49;100.00;98211.50;6127030;23;20010;-80
2021/12/02 06:47:11;;;;;;;22.15;15.40;;;;;;;4.45;100.00;98207.53;6125435;23;20136;-80
2021/12/02 06:49:39;;;;;;;25.10;15.93;;;;;;;4.36;100.00;98213.56;6124998;23;20073;-80
2021/12/02 06:52:15;;;;;;;21.83;15.95;;;;;;;4.31;100.00;98215.75;6124669;23;20307;-81
2021/12/02 06:54:40;;;;;;;25.45;16.88;;;;;;;4.23;100.00;98215.63;6124289;23;20082;-78
2021/12/02 06:57:06;;;;;;;25.50;15.90;;;;;;;4.16;100.00;98217.13;6124594;23;20101;-79
2021/12/02 06:59:32;;;;;;;23.65;16.65;;;;;;;4.19;100.00;98219.47;6124378;23;20002;-78
2021/12/02 07:01:58;;;;;;;22.20;15.75;;;;;;;4.19;100.00;98229.91;6124568;23;20010;-77
2021/12/02 07:04:24;;;;;;;24.00;16.92;;;;;;;4.22;100.00;98229.66;6123641;23;20089;-77
2021/12/02 07:06:49;;;;;;;30.75;16.73;;;;;;;4.25;100.00;98234.59;6124375;23;20435;-78
2021/12/02 07:09:15;;;;;;;31.33;17.75;;;;;;;4.28;100.00;98229.09;6123599;23;20025;-78
2021/12/02 07:11:43;;;;;;;28.83;16.90;;;;;;;4.32;100.00;98229.66;6123359;23;20069;-77
2021/12/02 07:14:15;;;;;;;28.25;17.38;;;;;;;4.37;100.00;98235.28;6123719;23;20010;-77
2021/12/02 07:16:41;;;;;;;26.05;15.82;;;;;;;4.42;100.00;98246.97;6124482;23;20060;-77
2021/12/02 07:19:08;;;;;;;28.83;17.10;;;;;;;4.46;100.00;98248.38;6124058;23;20310;-77
2021/12/02 07:21:39;;;;;;;26.60;16.38;;;;;;;4.41;100.00;98255.78;6123607;23;20076;-77
2021/12/02 07:24:08;;;;;;;27.00;17.05;;;;;;;4.42;100.00;98257.41;6124103;23;20009;-78
2021/12/02 07:26:41;;;;;;;24.52;17.40;;;;;;;4.36;100.00;98257.97;6124045;23;20018;-77
2021/12/02 07:29:08;;;;;;;26.45;18.15;;;;;;;4.21;100.00;98259.31;6123251;23;20065;-76
2021/12/02 07:31:35;;;;;;;24.25;18.20;;;;;;;4.07;100.00;98252.69;6123448;23;20037;-78
2021/12/02 07:34:03;;;;;;;28.83;18.58;;;;;;;4.01;100.00;98257.59;6123860;23;20021;-78
2021/12/02 07:36:29;;;;;;;29.98;18.15;;;;;;;4.06;100.00;98256.25;6123571;23;20388;-78
2021/12/02 07:38:55;;;;;;;26.23;18.48;;;;;;;4.15;100.00;98238.13;6124261;23;20097;-78
2021/12/02 07:41:22;;;;;;;22.90;17.20;;;;;;;4.20;100.00;98243.78;6125334;23;20391;-78
2021/12/02 07:43:47;;;;;;;28.80;17.50;;;;;;;4.27;100.00;98256.16;6123674;23;20020;-78
2021/12/02 07:46:13;;;;;;;23.73;16.63;;;;;;;4.33;100.00;98254.81;6123008;23;20100;-78
2021/12/02 07:48:39;;;;;;;24.08;17.27;;;;;;;4.37;100.00;98257.00;6123351;23;20085;-79
2021/12/02 07:51:11;;;;;;;27.98;17.45;;;;;;;4.34;100.00;98257.28;6123677;23;20049;-78
2021/12/02 07:53:40;;;;;;;25.15;17.75;;;;;;;4.34;100.00;98257.28;6121872;23;20379;-77
2021/12/02 07:56:09;;;;;;;32.10;18.42;;;;;;;4.41;100.00;98258.41;6129074;23;20515;-78
2021/12/02 07:58:35;;;;;;;30.92;18.40;;;;;;;4.48;100.00;98250.81;6137699;23;20010;-77
2021/12/02 08:01:02;;;;;;;31.73;16.63;;;;;;;4.56;100.00;98258.00;6124366;23;20394;-78
2021/12/02 08:03:29;;;;;;;27.05;17.55;;;;;;;4.63;100.00;98259.09;6122757;23;20002;-77
2021/12/02 08:05:55;;;;;;;23.33;17.10;;;;;;;4.59;100.00;98257.72;6122835;23;20017;-78
2021/12/02 08:08:20;;;;;;;29.38;17.20;;;;;;;4.57;100.00;98257.03;6122342;23;20339;-78
2021/12/02 08:10:46;;;;;;;25.90;17.23;;;;;;;4.59;100.00;98262.97;6122960;23;20018;-78
2021/12/02 08:13:15;;;;;;;25.25;16.70;;;;;;;4.57;100.00;98259.66;6122912;23;20014;-77
2021/12/02 08:15:42;;;;;;;21.33;15.65;;;;;;;4.61;100.00;98261.00;6122906;23;20469;-77
2021/12/02 08:18:09;;;;;;;23.17;16.70;;;;;;;4.60;100.00;98259.34;6123021;23;20020;-78
2021/12/02 08:20:36;;;;;;;27.95;17.08;;;;;;;4.54;100.00;98252.91;6122941;23;20062;-78
2021/12/02 08:23:03;;;;;;;24.98;16.73;;;;;;;4.50;100.00;98254.97;6123298;23;20017;-77
2021/12/02 08:25:30;;;;;;;26.55;16.85;;;;;;;4.50;100.00;98252.34;6122899;23;20018;-78
2021/12/02 08:27:59;;;;;;;27.05;18.05;;;;;;;4.47;100.00;98252.63;6123208;23;20006;-77
2021/12/02 08:30:27;;;;;;;27.95;16.95;;;;;;;4.39;100.00;98257.72;6122729;23;20018;-78
2021/12/02 08:32:53;;;;;;;28.13;17.92;;;;;;;4.34;100.00;98249.44;6123060;23;20089;-78
2021/12/02 08:35:19;;;;;;;25.33;17.60;;;;;;;4.30;100.00;98247.25;6122704;23;20073;-77
2021/12/02 08:37:47;;;;;;;25.42;17.25;;;;;;;4.25;100.00;98239.81;6123350;23;20014;-78
2021/12/02 08:40:31;;;;;;;22.80;17.27;;;;;;;4.23;100.00;98241.75;6123505;23;20014;-76
2021/12/02 08:43:00;;;;;;;31.15;18.63;;;;;;;4.26;100.00;98251.91;6122286;23;20021;-79
2021/12/02 08:45:27;;;;;;;26.95;17.73;;;;;;;4.36;100.00;98244.09;6122695;23;20044;-77
2021/12/02 08:47:54;;;;;;;25.45;17.98;;;;;;;4.43;100.00;98245.19;6123317;23;20017;-78
2021/12/02 08:50:21;;;;;;;22.08;17.45;;;;;;;4.46;100.00;98242.31;6146207;23;20061;-79
2021/12/02 08:52:48;;;;;;;27.70;17.83;;;;;;;4.48;100.00;98238.59;6123651;23;20089;-79
2021/12/02 08:55:15;;;;;;;27.63;17.83;;;;;;;4.45;100.00;98236.25;6123441;23;20017;-75
2021/12/02 08:57:40;;;;;;;28.83;18.05;;;;;;;4.46;100.00;98237.94;6123576;23;20012;-77
2021/12/02 09:00:09;;;;;;;26.13;18.27;;;;;;;4.49;100.00;98232.41;6123808;23;20400;-78
2021/12/02 09:02:35;;;;;;;27.63;18.10;;;;;;;4.51;100.00;98240.94;6123569;23;20021;-78
2021/12/02 09:05:01;;;;;;;27.10;18.80;;;;;;;4.53;100.00;98238.22;6123513;23;20013;-79
2021/12/02 09:07:26;;;;;;;26.27;19.55;;;;;;;4.57;100.00;98238.75;6123070;23;20006;-79
2021/12/02 09:09:52;;;;;;;28.85;18.15;;;;;;;4.62;100.00;98244.38;6123323;23;20232;-77
2021/12/02 09:12:18;;;;;;;27.90;18.48;;;;;;;4.66;100.00;98243.13;6121217;23;20435;-76
2021/12/02 09:14:44;;;;;;;25.65;18.52;;;;;;;4.63;100.00;98244.25;6123334;23;20420;-77
2021/12/02 09:17:09;;;;;;;24.35;17.63;;;;;;;4.65;100.00;98246.72;6123576;23;20021;-77
2021/12/02 09:19:35;;;;;;;29.48;19.48;;;;;;;4.60;100.00;98254.97;6123542;23;20010;-78
2021/12/02 09:22:00;;;;;;;27.75;19.10;;;;;;;4.64;100.00;98252.91;6125675;23;20037;-77
2021/12/02 09:24:26;;;;;;;30.77;19.77;;;;;;;4.67;100.00;98250.00;6125342;23;20093;-76
2021/12/02 09:26:53;;;;;;;34.30;21.58;;;;;;;4.72;100.00;98253.03;6148305;23;20079;-79
2021/12/02 09:29:22;;;;;;;32.42;20.83;;;;;;;4.80;100.00;98256.63;6125681;23;20014;-76
2021/12/02 09:31:48;;;;;;;31.25;20.88;;;;;;;4.90;100.00;98252.22;6125792;23;20016;-79
2021/12/02 09:34:14;;;;;;;30.05;20.48;;;;;;;5.02;100.00;98245.03;6123804;23;20486;-78
2021/12/02 09:36:41;;;;;;;28.90;20.02;;;;;;;5.19;100.00;98246.94;6125711;23;20021;-77
2021/12/02 09:39:09;;;;;;;26.23;18.67;;;;;;;5.31;100.00;98224.88;6126372;23;20014;-79
2021/12/02 09:41:36;;;;;;;33.40;20.02;;;;;;;5.42;100.00;98225.72;6126263;23;20021;-77
2021/12/02 09:44:02;;;;;;;30.40;19.30;;;;;;;5.46;100.00;98221.81;6134882;23;20368;-79
2021/12/02 09:46:28;;;;;;;31.17;18.92;;;;;;;5.58;100.00;98216.28;6134272;23;20014;-79
2021/12/02 09:48:55;;;;;;;31.45;19.60;;;;;;;5.71;100.00;98216.75;6135279;23;20005;-78
2021/12/02 09:51:27;;;;;;;27.73;19.30;;;;;;;5.72;100.00;98217.56;6137273;23;20029;-75
2021/12/02 09:54:00;;;;;;;26.70;20.35;;;;;;;5.76;100.00;98211.09;6141811;23;20021;-77
2021/12/02 09:56:32;;;;;;;25.92;19.52;;;;;;;5.78;100.00;98202.13;6152139;23;20006;-78
2021/12/02 09:59:09;;;;;;;27.63;19.50;;;;;;;5.83;100.00;98193.84;6144866;23;20021;-78
2021/12/02 10:01:48;;;;;;;29.58;19.60;;;;;;;5.88;100.00;98186.41;6134232;23;20014;-78
2021/12/02 10:04:13;;;;;;;29.92;19.83;;;;;;;5.93;100.00;98186.78;6129678;23;20049;-78
2021/12/02 10:06:41;;;;;;;35.50;21.15;;;;;;;6.00;100.00;98195.72;6126512;23;20093;-77
2021/12/02 10:09:28;;;;;;;31.52;21.08;;;;;;;6.01;100.00;98175.56;6126481;23;20002;-77
2021/12/02 10:12:00;;;;;;;27.40;20.67;;;;;;;6.02;100.00;98183.28;6142254;23;20013;-77
2021/12/02 10:14:39;;;;;;;31.85;19.02;;;;;;;6.04;100.00;98181.34;6128162;23;20046;-78
2021/12/02 10:17:04;;;;;;;24.90;19.27;;;;;;;6.11;100.00;98176.34;6126195;23;20033;-79
2021/12/02 10:19:30;;;;;;;28.85;20.35;;;;;;;6.15;100.00;98170.66;6124573;23;20023;-77
2021/12/02 10:22:07;;;;;;;32.97;20.20;;;;;;;6.21;100.00;98165.78;6125882;23;20021;-77
2021/12/02 10:24:41;;;;;;;29.65;20.65;;;;;;;6.25;100.00;98156.66;6124134;23;20045;-78
2021/12/02 10:27:07;;;;;;;28.40;19.85;;;;;;;6.26;100.00;98153.06;6124713;23;20018;-78
2021/12/02 10:29:36;;;;;;;34.25;19.70;;;;;;;6.29;100.00;98147.53;6123925;23;20331;-77
2021/12/02 10:32:05;;;;;;;29.05;20.73;;;;;;;6.32;100.00;98140.19;6125029;23;20020;-78
2021/12/02 10:34:31;;;;;;;26.63;19.00;;;;;;;6.35;100.00;98136.47;6123891;23;20006;-78
2021/12/02 10:37:10;;;;;;;26.60;19.13;;;;;;;6.39;100.00;98130.75;6124785;23;20045;-77
2021/12/02 10:39:35;;;;;;;25.33;18.92;;;;;;;6.39;100.00;98124.69;6122234;23;20010;-78
2021/12/02 10:42:09;;;;;;;25.50;18.67;;;;;;;6.43;100.00;98128.66;6124415;23;20056;-77
2021/12/02 10:44:39;;;;;;;23.85;18.00;;;;;;;6.43;100.00;98128.66;6123942;23;20383;-77
2021/12/02 10:47:09;;;;;;;27.25;18.48;;;;;;;6.48;100.00;98126.44;6124136;23;20029;-78
2021/12/02 10:49:50;;;;;;;30.08;19.00;;;;;;;6.55;100.00;98124.81;6123800;23;20030;-77
2021/12/02 10:52:20;;;;;;;29.83;19.83;;;;;;;6.56;100.00;98121.22;6124088;23;20088;-78
2021/12/02 10:55:07;;;;;;;31.05;19.83;;;;;;;6.56;100.00;98119.44;6124485;23;20104;-78
2021/12/02 10:57:37;;;;;;;24.65;18.70;;;;;;;6.56;100.00;98108.13;6124396;23;20021;-78
2021/12/02 11:00:12;;;;;;;28.75;19.05;;;;;;;6.61;100.00;98094.56;6123041;23;20006;-79
2021/12/02 11:02:43;;;;;;;24.83;18.98;;;;;;;6.65;100.00;98098.53;6124271;23;20040;-78
2021/12/02 11:05:10;;;;;;;24.73;18.55;;;;;;;6.67;100.00;98096.56;6122424;23;20085;-78
2021/12/02 11:07:39;;;;;;;22.65;18.20;;;;;;;6.67;100.00;98094.78;6123814;23;20745;-79
2021/12/02 11:10:12;;;;;;;28.42;19.52;;;;;;;6.69;100.00;98092.81;6123990;23;20009;-78
2021/12/02 11:12:40;;;;;;;25.90;18.85;;;;;;;6.71;100.00;98084.81;6123867;23;20013;-76
2021/12/02 11:15:10;;;;;;;24.73;18.02;;;;;;;6.76;100.00;98077.31;6146546;23;20084;-77
2021/12/02 11:18:01;;;;;;;23.40;19.05;;;;;;;6.79;100.00;98071.75;6123517;23;20010;-77
2021/12/02 11:20:43;;;;;;;26.95;18.58;;;;;;;6.88;100.00;98071.66;6123338;23;20014;-78
2021/12/02 11:23:10;;;;;;;26.05;18.38;;;;;;;6.93;99.40;98069.38;6124091;23;20040;-78
2021/12/02 11:25:39;;;;;;;28.02;17.98;;;;;;;7.02;99.27;98064.16;6123448;23;20014;-77
2021/12/02 11:28:09;;;;;;;26.55;19.08;;;;;;;7.13;97.80;98069.94;6123789;23;20056;-77
2021/12/02 11:30:37;;;;;;;29.77;20.10;;;;;;;7.20;97.21;98049.16;6123712;23;20018;-79
2021/12/02 11:33:07;;;;;;;28.70;19.85;;;;;;;7.22;95.44;98052.47;6123756;23;20029;-77
2021/12/02 11:35:39;;;;;;;23.10;17.95;;;;;;;7.24;95.75;98046.09;6123091;23;20424;-78
2021/12/02 11:38:31;;;;;;;24.33;18.15;;;;;;;7.35;95.64;98042.34;6124054;23;20092;-76